Kezdőlap
METAR-TAF:

METAR-TAF

Repülőterek :

Albenga, Olaszország

földrajzi szélesség: 44-03N, földrajzi hosszúság: 008-07E, magasság: 45 m

Jelenlegi meteorológiai megfigyelések

A jelentés 1 órával és 19 perccel ezelõtt készült, 16:50 UTC
Kelet-délkeleti szél 7 kt
Hőmérséklet 14°C
Páratartalom 63%
Légköri nyomás 1031 hPa
Látótávolság: 7000 m

METAR: LIMG 221650Z 11007KT 7000 NSC 14/07 Q1031

Idő: 19:09 (18:09 UTC)


TAF: hiányzik

Meteorológiai megfigyelések és előrejelzések több, mint 4000 repülőtéren (METAR és TAF jelentéseket).

A térképen piros és sárga pontok jelzik az elérhető meteorológiai állomásokat.

Mozgassa az egeret a pont fölött, hogy megjelenjen az állomás neve.

Azután kattintson az időjárási megfigyelések és előrejelzések megtekintéséhez.

A térkép megváltoztatása: kattintson a fekete keresztel jelölt zöld gombra ráközelítéshez, a vonallal jelölt zöld gombra távolításhoz, vagy a zöld nyilakra a szomszédos térképek eléréséhez.


METAR-TAF: